Tiff City, MO (64868)

2:01 AM CST on February 13, 2016 (GMT -0600)
Grove Municipal | | Change Station
CLOSE
Current Station
Airport
Location: Grove,
Elevation: 833 ft
Nearby Weather Stations

Elev 833 ft 36.60 °N, 94.74 °W | Updated 6 minutes ago

Mostly Cloudy
Mostly Cloudy
32 °F
Feels Like 24 °F
N
9
Wind Variable Wind from NE
Gusts 16 mph

Today
High -- | Low -- °F
--% Chance of Precip.
Yesterday
High -- | Low -- °F
Precip. -- in
Pressure 30.53 in
Visibility 10.0 miles
Clouds Clear
Windchill 24 °F
Dew Point 16 °F
Humidity 51%
Rainfall 0.00 in
Snow Depth Not available.
7:09 AM 5:56 PM
Waxing Crescent, 28% visible
METAR KGMJ 130755Z AUTO 04008G14KT 10SM CLR 00/M09 A3053 RMK AO2
Pressure 30.53 in
Visibility 10.0 miles
Clouds Clear
Windchill 24 °F
Dew Point 16 °F
Humidity 51%
Rainfall 0.00 in
Snow Depth Not available.
7:09 AM 5:56 PM
Waxing Crescent, 28% visible
METAR KGMJ 130755Z AUTO 04008G14KT 10SM CLR 00/M09 A3053 RMK AO2

10-Day Weather Forecast

Almanac

Astronomy

Feb. 13, 2016 Rise Set
Actual Time
Civil Twilight
Nautical Twilight
Astronomical Twilight
Moon
Length of Visible Light
Length of Day
Tomorrow will be .
, % of the Moon is Illuminated

Today's Extremes

State Highs State Lows

Community

WunderPhotos

Upload Photos

1,892,526 photos uploaded!

WunderBlog® & News

Nearby

Air Quality

  Air Quality AQ Index Pollutant
Not available.

Snow Depth

Station Depth Elevation

Earthquake Activity

City Distance Mag. Time & Date
Minimum magnitude displayed is 2.5.

Coastal Water Temperatures

Place Temperature

Stations

Nearby Weather Stations

Station Location Temp. Windchill Dew Point Humidity Wind Precip. Elev Updated Type
                   

Watches & Warnings

There are currently no watches in effect.